Time;durP1;ratioP1;P1;durP2;ratioP2;P2;SDS_P1;SDS_P2;PMS_P1;PMS_P2;Temp;Humidity;BMP_temperature;BMP_pressure;BME280_temperature;BME280_humidity;BME280_pressure;Samples;Min_cycle;Max_cycle;Signal;HPM_P1;HPM_P2
2021/07/10 00:02:50;;;;;;;8.98;7.43;;;17.10;99.90;;;;;;6699468;88;20652;-76
2021/07/10 00:12:51;;;;;;;10.00;7.10;;;16.90;99.90;;;;;;6691439;88;20201;-76
2021/07/10 00:22:52;;;;;;;10.23;6.95;;;16.80;99.90;;;;;;6698185;88;20689;-76
2021/07/10 00:32:52;;;;;;;8.63;6.30;;;16.80;99.90;;;;;;6702573;88;20210;-76
2021/07/10 00:42:53;;;;;;;9.18;7.18;;;16.80;99.90;;;;;;6705680;88;20238;-75
2021/07/10 00:52:54;;;;;;;9.63;6.70;;;16.80;99.90;;;;;;6694873;88;20323;-76
2021/07/10 01:02:55;;;;;;;11.00;6.13;;;16.80;99.90;;;;;;6699850;88;20554;-76
2021/07/10 01:12:56;;;;;;;7.68;6.22;;;16.80;99.90;;;;;;6699322;88;20493;-76
2021/07/10 01:22:57;;;;;;;8.32;6.10;;;16.70;99.90;;;;;;6698616;88;20212;-76
2021/07/10 01:32:58;;;;;;;7.68;5.80;;;16.60;99.90;;;;;;6700126;88;20220;-76
2021/07/10 01:43:03;;;;;;;8.77;6.37;;;16.50;99.90;;;;;;6704216;88;20222;-77
2021/07/10 01:53:04;;;;;;;7.62;6.10;;;16.40;99.90;;;;;;6699047;88;20185;-76
2021/07/10 02:03:05;;;;;;;6.93;5.90;;;16.50;99.90;;;;;;6698012;88;20220;-76
2021/07/10 02:13:12;;;;;;;9.27;5.90;;;16.50;99.90;;;;;;6698329;88;20291;-76
2021/07/10 02:23:13;;;;;;;7.55;5.95;;;16.20;99.90;;;;;;6698277;88;20215;-76
2021/07/10 02:33:15;;;;;;;9.93;6.35;;;16.40;99.90;;;;;;6697650;88;20324;-76
2021/07/10 02:43:15;;;;;;;9.30;6.07;;;16.00;99.90;;;;;;6696851;88;20182;-76
2021/07/10 02:53:16;;;;;;;10.82;6.12;;;15.90;99.90;;;;;;6697517;88;20187;-76
2021/07/10 03:03:16;;;;;;;8.30;6.07;;;15.70;99.90;;;;;;6697478;88;20191;-76
2021/07/10 03:13:17;;;;;;;8.88;6.55;;;15.70;99.90;;;;;;6693822;88;21214;-76
2021/07/10 03:23:18;;;;;;;8.43;6.15;;;15.70;99.90;;;;;;6703718;88;20249;-76
2021/07/10 03:33:20;;;;;;;10.00;6.30;;;15.60;99.90;;;;;;6699096;88;21204;-75
2021/07/10 03:43:20;;;;;;;9.73;6.28;;;15.60;99.90;;;;;;6700127;88;20654;-76
2021/07/10 03:53:21;;;;;;;11.85;7.07;;;15.40;99.90;;;;;;6697687;88;20225;-75
2021/07/10 04:03:21;;;;;;;11.43;7.65;;;15.20;99.90;;;;;;6697942;88;20280;-76
2021/07/10 04:13:22;;;;;;;13.32;9.07;;;15.10;99.90;;;;;;6697506;88;20769;-75
2021/07/10 04:23:25;;;;;;;17.30;12.07;;;15.30;99.90;;;;;;6699207;88;20216;-75
2021/07/10 04:33:25;;;;;;;20.15;13.18;;;15.40;99.90;;;;;;6697565;88;21039;-76
2021/07/10 04:43:26;;;;;;;19.23;13.40;;;15.30;99.90;;;;;;6698296;88;20284;-76
2021/07/10 04:53:26;;;;;;;18.02;12.35;;;15.70;99.90;;;;;;6704958;88;20211;-75
2021/07/10 05:03:27;;;;;;;16.47;12.17;;;16.20;99.90;;;;;;6705357;88;20248;-75
2021/07/10 05:13:27;;;;;;;20.27;13.02;;;16.30;99.90;;;;;;6710664;88;20517;-76
2021/07/10 05:23:28;;;;;;;17.27;11.88;;;16.40;99.90;;;;;;6699561;88;20379;-76
2021/07/10 05:33:28;;;;;;;17.62;11.52;;;16.40;99.90;;;;;;6700625;88;20235;-75
2021/07/10 05:43:29;;;;;;;13.15;9.43;;;16.60;99.90;;;;;;6698590;88;20951;-76
2021/07/10 05:53:30;;;;;;;12.23;9.23;;;16.90;99.90;;;;;;6683068;88;20182;-75
2021/07/10 06:03:30;;;;;;;13.68;9.73;;;17.20;99.90;;;;;;6686579;88;20236;-75
2021/07/10 06:13:31;;;;;;;13.40;10.13;;;17.30;99.90;;;;;;6699038;88;20197;-76
2021/07/10 06:23:31;;;;;;;13.68;9.82;;;17.30;99.90;;;;;;6702207;88;20640;-76
2021/07/10 06:33:32;;;;;;;16.33;11.52;;;17.40;99.90;;;;;;6703460;88;20183;-75
2021/07/10 06:43:32;;;;;;;15.73;11.02;;;17.40;99.90;;;;;;6701224;88;20265;-76
2021/07/10 06:53:33;;;;;;;15.52;10.70;;;17.70;99.90;;;;;;6683793;88;20336;-76
2021/07/10 07:03:33;;;;;;;14.57;9.73;;;18.10;99.90;;;;;;6697706;88;20195;-77
2021/07/10 07:13:34;;;;;;;16.42;9.13;;;18.20;99.90;;;;;;6696719;88;20569;-76
2021/07/10 07:23:35;;;;;;;13.23;8.90;;;18.80;99.90;;;;;;6698142;88;20214;-76
2021/07/10 07:33:35;;;;;;;13.73;9.40;;;18.70;99.90;;;;;;6701107;88;20235;-76
2021/07/10 07:43:36;;;;;;;11.53;8.80;;;19.10;99.90;;;;;;6698019;88;20190;-77
2021/07/10 07:53:37;;;;;;;9.60;7.82;;;19.50;99.90;;;;;;6676128;77;20532;-77
2021/07/10 08:03:38;;;;;;;9.50;7.68;;;20.10;99.90;;;;;;6648137;89;20184;-77
2021/07/10 08:13:39;;;;;;;9.60;6.72;;;20.60;99.90;;;;;;6647517;89;20184;-76
2021/07/10 08:23:40;;;;;;;8.82;7.05;;;20.90;99.90;;;;;;6655465;89;20309;-77
2021/07/10 08:33:40;;;;;;;8.38;6.00;;;21.10;99.90;;;;;;6650625;89;20185;-76
2021/07/10 08:43:43;;;;;;;6.78;5.28;;;21.60;99.90;;;;;;6646663;89;20191;-76
2021/07/10 08:53:44;;;;;;;8.75;5.22;;;21.90;99.90;;;;;;6659089;89;20190;-76
2021/07/10 09:03:44;;;;;;;8.25;5.47;;;22.30;99.90;;;;;;6661620;89;20225;-76
2021/07/10 09:13:48;;;;;;;6.57;4.97;;;22.40;99.90;;;;;;6665288;89;20208;-77
2021/07/10 09:23:50;;;;;;;7.57;4.80;;;22.40;99.90;;;;;;6665681;89;20262;-77
2021/07/10 09:33:56;;;;;;;7.53;4.80;;;23.10;99.90;;;;;;6650616;89;20176;-77
2021/07/10 09:44:13;;;;;;;7.37;4.85;;;23.30;99.90;;;;;;6658301;89;20356;-77
2021/07/10 09:54:13;;;;;;;8.18;5.22;;;23.70;99.90;;;;;;6648792;89;20349;-77
2021/07/10 10:04:32;;;;;;;6.15;4.40;;;24.90;99.90;;;;;;6657688;89;20185;-76
2021/07/10 10:14:38;;;;;;;5.85;4.53;;;23.20;99.90;;;;;;6648660;89;20333;-77
2021/07/10 10:24:41;;;;;;;7.93;5.12;;;23.80;99.90;;;;;;6649019;89;20213;-77
2021/07/10 10:34:42;;;;;;;6.30;4.10;;;24.60;99.90;;;;;;6649909;89;20189;-77
2021/07/10 10:44:44;;;;;;;6.00;4.10;;;24.40;99.90;;;;;;6651405;89;20752;-77
2021/07/10 10:54:53;;;;;;;4.65;3.95;;;23.70;99.90;;;;;;6660780;89;20200;-78
2021/07/10 11:04:56;;;;;;;5.62;3.50;;;23.80;99.90;;;;;;6666931;89;20235;-78
2021/07/10 11:15:28;;;;;;;6.53;4.57;;;24.20;99.90;;;;;;6663717;89;20274;-77
2021/07/10 11:25:49;;;;;;;7.20;4.72;;;23.90;99.90;;;;;;6667433;89;20404;-78
2021/07/10 11:35:50;;;;;;;5.90;4.28;;;23.20;99.90;;;;;;6664513;89;20221;-78
2021/07/10 11:45:51;;;;;;;5.90;4.70;;;23.50;99.90;;;;;;6666996;89;20200;-79
2021/07/10 11:55:52;;;;;;;6.00;4.00;;;25.20;99.90;;;;;;6667138;88;20242;-78
2021/07/10 12:05:55;;;;;;;8.10;4.50;;;25.70;99.90;;;;;;6685440;88;20207;-78
2021/07/10 12:15:59;;;;;;;4.65;3.95;;;25.80;99.90;;;;;;6669647;89;20193;-78
2021/07/10 12:26:02;;;;;;;5.53;3.70;;;25.80;99.90;;;;;;6668131;89;20196;-78
2021/07/10 12:36:09;;;;;;;4.15;3.37;;;26.30;99.90;;;;;;6670102;89;20231;-78
2021/07/10 12:46:09;;;;;;;5.07;3.08;;;26.40;99.90;;;;;;6670864;88;20340;-78
2021/07/10 12:56:33;;;;;;;9.20;3.22;;;26.80;99.90;;;;;;6669278;89;20246;-78
2021/07/10 13:06:41;;;;;;;;;;;26.80;99.90;;;;;;6653190;89;20216;-78
2021/07/10 13:16:42;;;;;;;5.28;3.67;;;25.80;99.90;;;;;;6664408;89;20066;-78
2021/07/10 13:26:50;;;;;;;4.97;3.45;;;25.40;99.90;;;;;;6669020;89;20201;-78
2021/07/10 13:36:53;;;;;;;3.92;2.80;;;25.60;99.90;;;;;;6668581;89;20229;-78
2021/07/10 13:57:30;;;;;;;6.70;2.85;;;28.80;97.50;;;;;;6711847;88;20243;-76
2021/07/10 14:07:32;;;;;;;3.25;2.50;;;30.50;94.80;;;;;;6675734;88;20254;-77
2021/07/10 14:17:33;;;;;;;4.53;2.80;;;30.30;93.20;;;;;;6704223;88;20220;-76
2021/07/10 14:27:33;;;;;;;4.57;2.77;;;27.60;95.60;;;;;;6691051;88;20217;-76
2021/07/10 14:37:34;;;;;;;4.35;3.20;;;26.30;96.90;;;;;;6718061;88;20202;-77
2021/07/10 14:47:35;;;;;;;4.75;3.00;;;25.50;98.70;;;;;;6714166;88;20215;-77
2021/07/10 14:57:41;;;;;;;5.63;3.00;;;25.40;99.90;;;;;;6709954;88;20189;-76
2021/07/10 15:07:42;;;;;;;4.82;3.00;;;25.50;99.90;;;;;;6721522;88;20322;-78
2021/07/10 15:17:43;;;;;;;5.30;3.03;;;25.60;99.90;;;;;;6714942;88;20202;-78
2021/07/10 15:27:46;;;;;;;4.37;3.20;;;25.80;99.90;;;;;;6716527;88;20205;-78
2021/07/10 15:37:49;;;;;;;4.27;3.33;;;25.50;99.90;;;;;;6722535;88;20683;-78
2021/07/10 15:47:50;;;;;;;4.55;3.25;;;25.20;99.90;;;;;;6721431;88;20339;-77
2021/07/10 15:57:51;;;;;;;5.55;3.37;;;25.40;99.90;;;;;;6721537;88;20181;-80
2021/07/10 16:07:52;;;;;;;4.87;3.55;;;25.60;99.90;;;;;;6723569;88;20320;-78
2021/07/10 16:17:54;;;;;;;5.28;3.35;;;25.80;99.90;;;;;;6715192;88;20283;-78
2021/07/10 16:27:59;;;;;;;4.12;3.47;;;25.80;99.90;;;;;;6719107;88;20183;-79
2021/07/10 16:38:00;;;;;;;5.45;3.45;;;25.80;99.90;;;;;;6721245;88;20193;-79
2021/07/10 16:48:01;;;;;;;5.80;3.30;;;25.60;99.90;;;;;;6719462;88;20220;-77
2021/07/10 16:58:02;;;;;;;5.72;3.75;;;25.30;99.90;;;;;;6717519;88;20232;-78
2021/07/10 17:08:02;;;;;;;6.10;3.75;;;24.90;99.90;;;;;;6724507;88;20197;-79
2021/07/10 17:18:03;;;;;;;5.07;3.50;;;24.60;99.90;;;;;;6710878;88;20169;-77
2021/07/10 17:28:04;;;;;;;6.13;3.60;;;24.30;99.90;;;;;;6712360;88;20567;-77
2021/07/10 17:38:04;;;;;;;5.40;3.83;;;24.00;99.90;;;;;;6721183;88;20205;-77
2021/07/10 17:48:05;;;;;;;5.75;3.72;;;24.10;99.90;;;;;;6718255;88;20227;-78
2021/07/10 17:58:06;;;;;;;5.47;3.90;;;23.90;99.90;;;;;;6711434;88;20178;-78
2021/07/10 18:08:06;;;;;;;5.55;3.67;;;24.10;99.90;;;;;;6709425;88;20205;-78
2021/07/10 18:18:07;;;;;;;6.53;3.85;;;23.70;99.90;;;;;;6706769;88;20306;-78
2021/07/10 18:28:08;;;;;;;6.97;3.60;;;23.40;99.90;;;;;;6717899;88;20201;-78
2021/07/10 18:38:11;;;;;;;6.82;4.20;;;23.20;99.90;;;;;;6722124;88;20614;-78
2021/07/10 18:48:13;;;;;;;15.20;8.13;;;23.00;99.90;;;;;;6712498;88;20364;-77
2021/07/10 18:58:13;;;;;;;7.45;5.43;;;22.80;99.90;;;;;;6714542;88;20213;-78
2021/07/10 19:08:14;;;;;;;6.25;3.20;;;22.50;99.90;;;;;;6742850;88;20766;-78
2021/07/10 19:18:14;;;;;;;3.53;1.50;;;21.80;99.90;;;;;;6741369;88;20225;-78
2021/07/10 19:28:15;;;;;;;3.70;1.40;;;20.20;99.90;;;;;;6743977;88;20337;-79
2021/07/10 19:38:15;;;;;;;5.55;1.50;;;19.30;99.90;;;;;;6741481;88;20236;-78
2021/07/10 19:48:16;;;;;;;3.35;1.65;;;18.30;99.90;;;;;;6735949;88;20199;-77
2021/07/10 19:58:17;;;;;;;5.57;2.03;;;17.00;99.90;;;;;;6704240;88;20182;-77
2021/07/10 20:08:18;;;;;;;4.20;1.92;;;16.40;99.90;;;;;;6704257;88;20253;-76
2021/07/10 20:18:19;;;;;;;3.35;1.50;;;16.20;99.90;;;;;;6703764;88;21045;-76
2021/07/10 20:28:20;;;;;;;4.00;2.10;;;16.30;99.90;;;;;;6705915;88;20202;-76
2021/07/10 20:38:21;;;;;;;3.15;1.77;;;16.30;99.90;;;;;;6706360;88;20222;-76
2021/07/10 20:48:21;;;;;;;2.80;1.67;;;16.30;99.90;;;;;;6697059;88;20643;-76
2021/07/10 20:58:22;;;;;;;3.42;1.75;;;16.30;99.90;;;;;;6712278;88;20267;-77
2021/07/10 21:08:22;;;;;;;4.50;2.08;;;16.40;99.90;;;;;;6704653;88;20260;-75
2021/07/10 21:18:23;;;;;;;3.77;1.70;;;16.60;99.90;;;;;;6704427;88;20989;-76
2021/07/10 21:28:24;;;;;;;5.15;1.90;;;16.60;99.90;;;;;;6710652;88;21087;-76
2021/07/10 21:38:25;;;;;;;4.30;1.87;;;16.40;99.90;;;;;;6705344;88;20733;-76
2021/07/10 21:48:25;;;;;;;5.07;2.35;;;16.30;99.90;;;;;;6706489;88;20234;-76
2021/07/10 21:58:26;;;;;;;6.22;2.55;;;16.40;99.90;;;;;;6705415;88;20834;-76
2021/07/10 22:08:27;;;;;;;4.20;2.87;;;16.30;99.90;;;;;;6709657;88;20191;-76
2021/07/10 22:18:27;;;;;;;4.07;2.40;;;16.20;99.90;;;;;;6699902;88;20561;-76
2021/07/10 22:28:28;;;;;;;7.65;2.42;;;16.20;99.90;;;;;;6705235;88;20629;-76
2021/07/10 22:38:29;;;;;;;3.75;2.00;;;16.40;99.90;;;;;;6721399;88;20267;-77
2021/07/10 22:48:29;;;;;;;4.60;2.60;;;16.40;99.90;;;;;;6702251;88;20351;-77
2021/07/10 22:58:30;;;;;;;4.35;2.80;;;16.40;99.90;;;;;;6705031;88;20177;-77
2021/07/10 23:08:31;;;;;;;6.22;3.25;;;16.50;99.90;;;;;;6709573;88;20677;-77
2021/07/10 23:18:31;;;;;;;4.63;2.77;;;16.30;99.90;;;;;;6707950;88;20186;-77
2021/07/10 23:28:32;;;;;;;5.03;2.62;;;16.30;99.90;;;;;;6707289;88;20186;-77
2021/07/10 23:38:33;;;;;;;4.45;2.80;;;16.10;99.90;;;;;;6706280;88;20261;-77
2021/07/10 23:48:33;;;;;;;5.93;3.33;;;16.10;99.90;;;;;;6703994;88;20673;-77
2021/07/10 23:58:34;;;;;;;6.47;3.40;;;16.20;99.90;;;;;;6703012;88;20235;-77
